createdAt,value
2023-04-27T00:00:40.050Z,3.2
2023-04-27T00:04:41.360Z,2.8
2023-04-27T00:08:40.382Z,2.6
2023-04-27T00:12:40.862Z,2.9
2023-04-27T00:16:40.670Z,2.5
2023-04-27T00:20:40.531Z,2.73
2023-04-27T00:24:40.416Z,2.7
2023-04-27T00:28:40.400Z,2.6
2023-04-27T00:32:40.784Z,3.2
2023-04-27T00:36:40.243Z,2.9
2023-04-27T00:40:40.468Z,2.77
2023-04-27T00:44:40.421Z,3.17
2023-04-27T00:48:40.855Z,2.93
2023-04-27T00:52:40.515Z,3.5
2023-04-27T00:56:39.573Z,2.97
2023-04-27T01:00:40.281Z,2.9
2023-04-27T01:04:40.799Z,2.73
2023-04-27T01:08:40.460Z,2.63
2023-04-27T01:12:40.305Z,2.97
2023-04-27T01:16:40.744Z,5.67
2023-04-27T01:20:40.608Z,2.55
2023-04-27T01:24:40.460Z,4.7
2023-04-27T01:28:40.391Z,2.75
2023-04-27T01:32:40.500Z,3.1
2023-04-27T01:36:40.470Z,2.62
2023-04-27T01:40:40.561Z,2.87
2023-04-27T01:44:40.513Z,3.2
2023-04-27T01:48:40.419Z,3.37
2023-04-27T01:52:40.469Z,2.7
2023-04-27T01:56:40.502Z,3.03
2023-04-27T02:00:40.547Z,3.77
2023-04-27T02:04:41.219Z,2.77
2023-04-27T02:08:40.417Z,2.6
2023-04-27T02:12:40.012Z,2.87
2023-04-27T02:16:40.547Z,2.9
2023-04-27T02:20:40.305Z,2.73
2023-04-27T02:24:40.473Z,2.9
2023-04-27T02:28:40.448Z,2.8
2023-04-27T02:32:40.493Z,2.7
2023-04-27T02:36:40.551Z,3.17
2023-04-27T02:40:40.579Z,3.1
2023-04-27T02:44:40.508Z,2.8
2023-04-27T02:48:40.516Z,2.8
2023-04-27T02:52:40.401Z,3.2
2023-04-27T02:56:40.466Z,3.17
2023-04-27T03:00:40.498Z,2.8
2023-04-27T03:04:40.775Z,4.23
2023-04-27T03:08:40.096Z,3.37
2023-04-27T03:12:41.102Z,2.87
2023-04-27T03:16:40.496Z,3.1
2023-04-27T03:20:40.479Z,3.4
2023-04-27T03:24:40.527Z,3.4
2023-04-27T03:28:40.763Z,2.47
2023-04-27T03:32:40.855Z,5.2
2023-04-27T03:36:40.373Z,4
2023-04-27T03:40:40.038Z,4.47
2023-04-27T03:44:40.305Z,2.9
2023-04-27T03:48:40.436Z,3.3
2023-04-27T03:52:40.503Z,3.3
2023-04-27T03:56:40.162Z,2.87
2023-04-27T04:00:40.857Z,3.13
2023-04-27T04:04:41.276Z,3.27
2023-04-27T04:08:40.531Z,3.17
2023-04-27T04:12:40.399Z,2.37
2023-04-27T04:16:40.698Z,2.9
2023-04-27T04:20:40.601Z,3
2023-04-27T04:24:40.687Z,3.3
2023-04-27T04:28:40.569Z,2.77
2023-04-27T04:32:40.542Z,3
2023-04-27T04:36:40.059Z,5.9
2023-04-27T04:40:40.934Z,3.7
2023-04-27T04:44:41.155Z,2.6
2023-04-27T04:48:40.653Z,2.9
2023-04-27T04:52:40.477Z,3.1
2023-04-27T04:56:40.292Z,2.9
2023-04-27T05:00:40.652Z,3.13
2023-04-27T05:04:40.471Z,2.85
2023-04-27T05:08:40.381Z,3.37
2023-04-27T05:12:40.528Z,3.1
2023-04-27T05:16:40.305Z,3.5
2023-04-27T05:20:40.528Z,3.42
2023-04-27T05:24:40.694Z,3.28
2023-04-27T05:28:40.525Z,3.53
2023-04-27T05:32:40.317Z,4.15
2023-04-27T05:36:40.306Z,2.95
2023-04-27T05:40:40.657Z,2.78
2023-04-27T05:44:40.484Z,2.92
2023-04-27T05:48:40.958Z,2.7
2023-04-27T05:52:40.504Z,2.72
2023-04-27T05:56:40.343Z,3.03
2023-04-27T06:00:40.539Z,2.42
2023-04-27T06:04:40.820Z,3.17
2023-04-27T06:08:40.433Z,3.2
2023-04-27T06:12:40.537Z,2.7
2023-04-27T06:16:40.565Z,2.5
2023-04-27T06:20:40.991Z,2.62
2023-04-27T06:24:40.503Z,3.1
2023-04-27T06:28:40.537Z,2.5
2023-04-27T06:32:39.669Z,3.67
2023-04-27T06:36:40.077Z,2.6
2023-04-27T06:40:41.243Z,2.6
2023-04-27T06:44:40.208Z,2.78
2023-04-27T06:48:41.235Z,2.62
2023-04-27T06:52:40.429Z,2.47
2023-04-27T06:56:40.481Z,2.62
2023-04-27T07:00:40.679Z,2.8
2023-04-27T07:04:40.996Z,2.3
2023-04-27T07:08:40.418Z,2.35
2023-04-27T07:12:40.252Z,3.47
2023-04-27T07:16:40.459Z,2.2
2023-04-27T07:20:40.816Z,2.58
2023-04-27T07:24:39.781Z,2.83
2023-04-27T07:28:40.855Z,5.25
2023-04-27T07:32:40.443Z,3.1
2023-04-27T07:36:39.757Z,2.87
2023-04-27T07:40:40.949Z,3.12
2023-04-27T07:44:40.561Z,3.95
2023-04-27T07:48:40.484Z,2.7
2023-04-27T07:52:40.479Z,3.03
2023-04-27T07:56:40.914Z,1.9
2023-04-27T08:00:40.572Z,2.17
2023-04-27T08:04:41.074Z,2.28
2023-04-27T08:08:40.680Z,2.78
2023-04-27T08:12:40.390Z,2.17
2023-04-27T08:16:39.318Z,1.83
2023-04-27T08:20:40.719Z,4.5
2023-04-27T08:24:40.759Z,2.1
2023-04-27T08:28:40.811Z,2.5
2023-04-27T08:32:40.720Z,2.37
2023-04-27T08:36:40.956Z,2.25
2023-04-27T08:40:40.434Z,2.53
2023-04-27T08:44:39.620Z,2.1
2023-04-27T08:48:40.475Z,2.87
2023-04-27T08:52:40.720Z,2
2023-04-27T08:56:40.565Z,2.37
2023-04-27T09:00:41.355Z,2
2023-04-27T09:04:40.764Z,3.22
2023-04-27T09:08:40.057Z,2.25
2023-04-27T09:12:41.078Z,1.85
2023-04-27T09:16:39.916Z,2.05
2023-04-27T09:20:39.690Z,1.8
2023-04-27T09:24:40.668Z,1.92
2023-04-27T09:28:40.134Z,1.65
2023-04-27T09:32:40.312Z,2.22
2023-04-27T09:36:40.380Z,2
2023-04-27T09:40:41.272Z,3.33
2023-04-27T09:44:39.566Z,2.2
2023-04-27T09:48:40.588Z,2.37
2023-04-27T09:52:40.414Z,1.55
2023-04-27T09:56:40.632Z,2.15
2023-04-27T10:00:39.517Z,1.95
2023-04-27T10:04:41.280Z,2.55
2023-04-27T10:08:40.222Z,2.22
2023-04-27T10:12:40.536Z,1.8
2023-04-27T10:16:39.845Z,2.05
2023-04-27T10:20:40.512Z,2
2023-04-27T10:24:39.634Z,2.03
2023-04-27T10:28:40.524Z,1.85
2023-04-27T10:32:40.462Z,1.8
2023-04-27T10:36:41.202Z,2.15
2023-04-27T10:40:40.773Z,1.83
2023-04-27T10:44:40.550Z,1.75
2023-04-27T10:48:40.424Z,2.4
2023-04-27T10:52:40.563Z,1.85
2023-04-27T10:56:39.808Z,1.62
2023-04-27T11:00:40.861Z,2.17
2023-04-27T11:04:40.594Z,2.7
2023-04-27T11:08:40.208Z,2.12
2023-04-27T11:12:40.464Z,1.98
2023-04-27T11:16:40.566Z,1.75
2023-04-27T11:20:40.661Z,1.67
2023-04-27T11:24:39.492Z,2.17
2023-04-27T11:28:40.894Z,2.53
2023-04-27T11:32:40.976Z,3
2023-04-27T11:36:40.402Z,2.2
2023-04-27T11:40:40.271Z,2.42
2023-04-27T11:44:41.161Z,2.33
2023-04-27T11:48:40.161Z,1.87
2023-04-27T11:52:40.947Z,2.62
2023-04-27T11:56:40.468Z,2.78
2023-04-27T12:00:40.932Z,2.35
2023-04-27T12:04:40.735Z,2.37
2023-04-27T12:08:40.243Z,2.4
2023-04-27T12:12:40.464Z,2.45
2023-04-27T12:16:40.344Z,2.72
2023-04-27T12:20:41.041Z,2.7
2023-04-27T12:24:40.796Z,2.22
2023-04-27T12:28:40.817Z,2.42
2023-04-27T12:32:40.517Z,2.5
2023-04-27T12:36:40.458Z,2.97
2023-04-27T12:40:40.874Z,2.95
2023-04-27T12:44:40.883Z,2.7
2023-04-27T12:48:40.557Z,3
2023-04-27T12:52:40.393Z,2.6
2023-04-27T12:56:40.378Z,2.65
2023-04-27T13:00:40.631Z,2.95
2023-04-27T13:04:40.790Z,2.7
2023-04-27T13:08:40.834Z,2.3
2023-04-27T13:12:40.642Z,2.87
2023-04-27T13:16:40.604Z,2.95
2023-04-27T13:20:41.024Z,2.35
2023-04-27T13:24:40.483Z,3
2023-04-27T13:28:40.779Z,2.8
2023-04-27T13:32:40.531Z,2.8
2023-04-27T13:36:39.908Z,2.78
2023-04-27T13:40:39.249Z,3.62
2023-04-27T13:44:40.398Z,3.15
2023-04-27T13:48:40.828Z,3.4
2023-04-27T13:52:40.405Z,3.28
2023-04-27T13:56:40.575Z,5.28
2023-04-27T14:00:40.636Z,2.7
2023-04-27T14:04:40.649Z,3.08
2023-04-27T14:08:39.491Z,3.6
2023-04-27T14:12:40.529Z,2.53
2023-04-27T14:16:40.545Z,3.1
2023-04-27T14:20:40.635Z,2.97
2023-04-27T14:24:40.471Z,2.45
2023-04-27T14:28:40.488Z,2.6
2023-04-27T14:32:40.608Z,2.28
2023-04-27T14:36:39.570Z,2.75
2023-04-27T14:40:40.540Z,2.35
2023-04-27T14:44:40.382Z,1.8
2023-04-27T14:48:40.790Z,2.65
2023-04-27T14:52:40.441Z,3.3
2023-04-27T14:56:39.603Z,2.4
2023-04-27T15:00:40.856Z,3.37
2023-04-27T15:04:41.045Z,2.8
2023-04-27T15:08:40.679Z,1.95
2023-04-27T15:12:40.899Z,2.08
2023-04-27T15:16:40.333Z,2.65
2023-04-27T15:20:40.521Z,2.37
2023-04-27T15:24:40.802Z,2.8
2023-04-27T15:28:40.320Z,2.85
2023-04-27T15:32:40.257Z,2.55
2023-04-27T15:36:40.261Z,2.45
2023-04-27T15:40:40.539Z,3.58
2023-04-27T15:44:40.353Z,2.58
2023-04-27T15:48:40.403Z,2.42
2023-04-27T15:52:40.368Z,3.2
2023-04-27T15:56:40.458Z,2.55
2023-04-27T16:00:40.653Z,2.87
2023-04-27T16:04:40.588Z,3.47
2023-04-27T16:08:40.465Z,2.17
2023-04-27T16:12:40.420Z,10.25
2023-04-27T16:16:40.692Z,3.45
2023-04-27T16:20:40.880Z,3.05
2023-04-27T16:24:40.490Z,3.37
2023-04-27T16:28:40.481Z,3.47
2023-04-27T16:32:40.399Z,3.28
2023-04-27T16:36:40.920Z,2.55
2023-04-27T16:40:41.249Z,3.1
2023-04-27T16:44:40.769Z,3
2023-04-27T16:48:40.562Z,2.47
2023-04-27T16:52:40.925Z,2.35
2023-04-27T16:56:40.460Z,3.45
2023-04-27T17:00:40.690Z,2.55
2023-04-27T17:04:40.745Z,2.45
2023-04-27T17:08:40.456Z,2
2023-04-27T17:12:40.497Z,2.65
2023-04-27T17:16:41.025Z,2.22
2023-04-27T17:20:42.230Z,2.17
2023-04-27T17:24:40.504Z,2.17
2023-04-27T17:28:40.685Z,2.1
2023-04-27T17:32:40.590Z,2.15
2023-04-27T17:36:40.532Z,1.8
2023-04-27T17:40:40.566Z,2.22
2023-04-27T17:44:40.385Z,2.17
2023-04-27T17:48:40.652Z,1.85
2023-04-27T17:52:40.337Z,1.92
2023-04-27T17:56:40.124Z,1.95
2023-04-27T18:00:40.991Z,2.7
2023-04-27T18:04:40.308Z,2.22
2023-04-27T18:08:39.872Z,2.42
2023-04-27T18:12:40.911Z,2.33
2023-04-27T18:16:40.448Z,2.15
2023-04-27T18:20:40.877Z,2.83
2023-04-27T18:24:40.466Z,2.8
2023-04-27T18:28:40.490Z,3.25
2023-04-27T18:32:40.601Z,2.35
2023-04-27T18:36:40.367Z,2.3
2023-04-27T18:40:40.610Z,2.12
2023-04-27T18:44:40.450Z,2.3
2023-04-27T18:48:40.485Z,3.15
2023-04-27T18:52:40.515Z,5.62
2023-04-27T18:56:40.363Z,5.15
2023-04-27T19:00:40.741Z,3.37
2023-04-27T19:04:45.394Z,3.22
2023-04-27T19:08:39.635Z,4.12
2023-04-27T19:12:41.106Z,3.8
2023-04-27T19:16:40.754Z,5.95
2023-04-27T19:20:40.545Z,7.93
2023-04-27T19:24:40.045Z,7.03
2023-04-27T19:28:40.761Z,6.62
2023-04-27T19:32:41.084Z,5.85
2023-04-27T19:36:40.487Z,6.63
2023-04-27T19:40:40.510Z,7.5
2023-04-27T19:44:40.457Z,6.27
2023-04-27T19:48:42.328Z,4.9
2023-04-27T19:52:40.474Z,5
2023-04-27T19:56:40.460Z,4.73
2023-04-27T20:00:40.489Z,3.53
2023-04-27T20:04:41.036Z,3.7
2023-04-27T20:08:40.471Z,4.63
2023-04-27T20:12:55.160Z,4
2023-04-27T20:16:40.654Z,4.3
2023-04-27T20:20:40.535Z,3.53
2023-04-27T20:24:40.478Z,5.23
2023-04-27T20:28:40.404Z,5.17
2023-04-27T20:32:40.480Z,4.7
2023-04-27T20:36:41.183Z,5.9
2023-04-27T20:40:40.594Z,4.23
2023-04-27T20:44:40.621Z,4.57
2023-04-27T20:48:40.445Z,3.6
2023-04-27T20:52:40.689Z,4.4
2023-04-27T20:56:40.319Z,3.9
2023-04-27T21:00:40.431Z,4.2
2023-04-27T21:04:40.661Z,3.8
2023-04-27T21:08:40.473Z,5
2023-04-27T21:12:40.468Z,4.17
2023-04-27T21:16:40.440Z,4.1
2023-04-27T21:20:40.452Z,4.87
2023-04-27T21:24:41.018Z,5.53
2023-04-27T21:28:40.421Z,4.13
2023-04-27T21:32:40.902Z,4.63
2023-04-27T21:36:40.430Z,3.9
2023-04-27T21:40:40.685Z,4.9
2023-04-27T21:44:40.560Z,4.73
2023-04-27T21:48:39.690Z,4.5
2023-04-27T21:52:40.486Z,5.23
2023-04-27T21:56:40.510Z,4.53
2023-04-27T22:00:40.297Z,4.7
2023-04-27T22:04:39.576Z,5.33
2023-04-27T22:08:40.934Z,4.4
2023-04-27T22:12:40.900Z,5.9
2023-04-27T22:16:41.041Z,4.5
2023-04-27T22:20:40.455Z,4.4
2023-04-27T22:24:40.478Z,5.2
2023-04-27T22:28:40.560Z,5.7
2023-04-27T22:32:40.615Z,5.2
2023-04-27T22:36:40.228Z,4.5
2023-04-27T22:40:40.503Z,4
2023-04-27T22:44:40.436Z,4.67
2023-04-27T22:48:40.521Z,4.8
2023-04-27T22:52:40.429Z,4.5
2023-04-27T22:56:40.503Z,4.63
2023-04-27T23:00:40.430Z,4.07
2023-04-27T23:04:40.758Z,4.7
2023-04-27T23:08:40.842Z,5
2023-04-27T23:12:40.404Z,5.1
2023-04-27T23:16:40.604Z,4.67
2023-04-27T23:20:40.369Z,5.1
2023-04-27T23:24:40.918Z,5.43
2023-04-27T23:28:40.452Z,4.73
2023-04-27T23:32:40.556Z,5.23
2023-04-27T23:36:40.474Z,4.97
2023-04-27T23:40:40.423Z,4.47
2023-04-27T23:44:40.375Z,5.7
2023-04-27T23:48:40.494Z,4.53
2023-04-27T23:52:40.258Z,4.3
2023-04-27T23:56:40.488Z,4.13
